Time;durP1;ratioP1;P1;durP2;ratioP2;P2;SDS_P1;SDS_P2;PMS_P1;PMS_P2;Temp;Humidity;BMP_temperature;BMP_pressure;BME280_temperature;BME280_humidity;BME280_pressure;Samples;Min_cycle;Max_cycle;Signal;HPM_P1;HPM_P2
2023/10/13 00:00:25;;;;;;;4.18;2.63;;;;;;;19.23;86.37;99485.97;336776;28;12035;-73
2023/10/13 00:00:40;;;;;;;4.25;2.25;;;;;;;19.24;86.20;99485.88;335917;28;17360;-73
2023/10/13 00:00:57;;;;;;;4.00;2.10;;;;;;;19.25;86.46;99489.34;337929;28;5406;-73
2023/10/13 00:01:11;;;;;;;5.13;2.22;;;;;;;19.22;86.73;99490.41;337570;28;16946;-73
2023/10/13 00:01:24;;;;;;;5.47;2.28;;;;;;;19.25;86.61;99490.16;336544;28;18923;-73
2023/10/13 00:01:37;;;;;;;6.25;2.45;;;;;;;19.24;86.70;99487.66;340760;28;4612;-73
2023/10/13 00:01:52;;;;;;;5.32;2.40;;;;;;;19.24;86.78;99483.22;338910;28;18981;-73
2023/10/13 00:02:05;;;;;;;4.50;2.33;;;;;;;19.24;86.83;99485.88;338351;28;18299;-73
2023/10/13 00:02:21;;;;;;;4.47;2.20;;;;;;;19.24;86.97;99487.66;339474;28;5448;-73
2023/10/13 00:02:33;;;;;;;4.47;2.30;;;;;;;19.22;87.01;99484.31;336687;28;17934;-73
2023/10/13 00:02:47;;;;;;;4.95;2.45;;;;;;;19.21;86.91;99488.72;338830;28;5453;-73
2023/10/13 00:03:02;;;;;;;4.47;2.58;;;;;;;19.22;86.71;99486.94;336146;28;17866;-73
2023/10/13 00:03:18;;;;;;;4.05;2.45;;;;;;;19.21;86.79;99474.69;336780;28;16415;-73
2023/10/13 00:03:31;;;;;;;3.08;2.03;;;;;;;19.19;86.78;99480.06;336240;28;17958;-73
2023/10/13 00:03:43;;;;;;;4.13;2.05;;;;;;;19.18;87.05;99483.66;337359;28;4995;-73
2023/10/13 00:03:55;;;;;;;4.68;2.28;;;;;;;19.16;86.82;99475.03;334777;28;18518;-73
2023/10/13 00:04:08;;;;;;;3.55;2.33;;;;;;;19.17;86.91;99481.97;337714;28;4526;-73
2023/10/13 00:04:24;;;;;;;5.25;2.30;;;;;;;19.14;86.95;99483.03;336379;28;17239;-73
2023/10/13 00:04:36;;;;;;;7.15;2.35;;;;;;;19.15;86.70;99474.16;336708;28;17796;-73
2023/10/13 00:04:49;;;;;;;5.60;2.38;;;;;;;19.16;86.84;99481.13;339773;28;5173;-73
2023/10/13 00:05:03;;;;;;;4.03;2.13;;;;;;;19.18;86.81;99482.84;336663;28;18400;-73
2023/10/13 00:05:16;;;;;;;3.42;2.10;;;;;;;19.19;86.65;99481.88;332110;28;18084;-73
2023/10/13 00:05:30;;;;;;;5.38;2.58;;;;;;;19.15;86.97;99484.72;339927;28;5268;-73
2023/10/13 00:05:43;;;;;;;6.18;2.50;;;;;;;19.13;87.01;99478.72;337160;28;17541;-73
2023/10/13 00:06:00;;;;;;;5.68;2.20;;;;;;;19.10;87.53;99476.31;337089;28;19247;-73
2023/10/13 00:06:12;;;;;;;5.25;2.30;;;;;;;19.11;87.10;99477.97;337490;28;17855;-73
2023/10/13 00:06:26;;;;;;;3.92;2.28;;;;;;;19.11;87.04;99475.34;339895;28;4675;-73
2023/10/13 00:06:38;;;;;;;3.40;1.95;;;;;;;19.12;87.07;99484.94;336237;28;17986;-73
2023/10/13 00:06:52;;;;;;;2.95;2.03;;;;;;;19.10;87.20;99481.56;333727;28;5606;-73
2023/10/13 00:07:08;;;;;;;3.95;2.38;;;;;;;19.10;87.32;99481.56;336162;28;19091;-73
2023/10/13 00:07:20;;;;;;;4.88;2.60;;;;;;;19.09;87.19;99477.25;336811;28;17065;-73
2023/10/13 00:07:32;;;;;;;4.85;2.42;;;;;;;19.09;87.06;99479.03;337050;28;17835;-73
2023/10/13 00:07:44;;;;;;;4.03;2.20;;;;;;;19.09;86.95;99484.31;339038;28;4645;-73
2023/10/13 00:08:01;;;;;;;5.40;2.58;;;;;;;19.09;87.42;99482.50;339467;28;4558;-73
2023/10/13 00:08:13;;;;;;;7.05;3.05;;;;;;;19.08;87.02;99483.47;336167;28;18011;-73
2023/10/13 00:08:25;;;;;;;5.75;2.70;;;;;;;19.07;86.99;99481.78;339771;28;4514;-73
2023/10/13 00:08:39;;;;;;;6.75;2.60;;;;;;;19.08;87.19;99487.91;336025;28;10403;-73
2023/10/13 00:08:51;;;;;;;6.47;2.55;;;;;;;19.08;86.94;99483.47;339534;28;4752;-73
2023/10/13 00:09:04;;;;;;;3.60;2.35;;;;;;;19.08;86.94;99482.66;337104;28;18897;-73
2023/10/13 00:09:16;;;;;;;3.50;2.20;;;;;;;19.07;86.93;99487.03;339562;28;4516;-73
2023/10/13 00:09:37;;;;;;;4.50;2.65;;;;;;;19.06;87.00;99477.47;337139;28;18241;-73
2023/10/13 00:09:49;;;;;;;5.90;2.67;;;;;;;19.07;86.79;99475.69;335566;28;18393;-73
2023/10/13 00:10:04;;;;;;;4.43;2.38;;;;;;;19.06;86.66;99480.09;337621;28;5239;-73
2023/10/13 00:10:18;;;;;;;3.70;2.20;;;;;;;19.04;87.09;99476.75;335000;28;18107;-73
2023/10/13 00:10:32;;;;;;;4.20;2.40;;;;;;;19.05;87.04;99473.16;334857;28;17539;-73
2023/10/13 00:10:44;;;;;;;4.15;2.50;;;;;;;19.02;87.02;99478.63;335141;28;18110;-73
2023/10/13 00:11:02;;;;;;;4.03;2.28;;;;;;;19.02;87.25;99475.19;337782;28;4938;-73
2023/10/13 00:11:15;;;;;;;5.68;2.10;;;;;;;19.01;86.98;99476.94;335396;28;17436;-73
2023/10/13 00:11:27;;;;;;;5.35;2.22;;;;;;;19.00;87.08;99471.81;338726;28;4620;-73
2023/10/13 00:11:44;;;;;;;3.40;2.30;;;;;;;19.00;87.05;99480.53;335245;28;18005;-73
2023/10/13 00:11:56;;;;;;;3.30;2.08;;;;;;;19.01;87.05;99471.69;334584;28;17642;-73
2023/10/13 00:12:14;;;;;;;2.92;2.00;;;;;;;19.00;86.90;99480.53;337350;28;16644;-73
2023/10/13 00:12:26;;;;;;;2.53;2.00;;;;;;;19.01;86.73;99474.31;336347;28;18116;-73
2023/10/13 00:12:38;;;;;;;2.55;1.85;;;;;;;19.00;86.95;99480.53;334345;28;5480;-73
2023/10/13 00:12:51;;;;;;;3.25;1.90;;;;;;;19.00;87.09;99475.28;337143;28;18094;-73
2023/10/13 00:13:13;;;;;;;3.55;2.17;;;;;;;18.98;87.21;99479.81;339561;28;4659;-73
2023/10/13 00:13:27;;;;;;;3.45;2.10;;;;;;;18.97;87.29;99475.47;336272;28;17572;-73
2023/10/13 00:13:49;;;;;;;3.83;2.25;;;;;;;18.96;87.07;99473.81;336266;28;4908;-73
2023/10/13 00:14:03;;;;;;;5.78;2.40;;;;;;;18.94;87.42;99471.28;336480;28;18798;-73
2023/10/13 00:14:18;;;;;;;5.03;2.30;;;;;;;18.92;87.49;99475.81;332155;28;5538;-73
2023/10/13 00:14:33;;;;;;;3.70;2.30;;;;;;;18.92;87.45;99478.44;335960;28;5005;-73
2023/10/13 00:14:46;;;;;;;3.47;2.20;;;;;;;18.91;87.29;99476.78;335904;28;17546;-73
2023/10/13 00:15:03;;;;;;;3.10;2.22;;;;;;;18.90;87.22;99472.44;340964;28;5548;-73
2023/10/13 00:15:17;;;;;;;6.65;2.53;;;;;;;18.87;87.36;99479.72;338506;28;17656;-73
2023/10/13 00:15:29;;;;;;;6.32;2.50;;;;;;;18.85;87.56;99482.44;341111;28;4670;-73
2023/10/13 00:15:56;;;;;;;4.47;2.40;;;;;;;18.83;87.52;99478.25;338537;28;12649;-73
2023/10/13 00:16:18;;;;;;;4.53;2.88;;;;;;;18.76;88.04;99481.25;336604;28;17659;-73
2023/10/13 00:16:30;;;;;;;3.90;2.60;;;;;;;18.75;87.98;99473.47;336266;28;18568;-73
2023/10/13 00:17:00;;;;;;;3.70;2.22;;;;;;;18.71;88.28;99475.50;335962;28;18013;-73
2023/10/13 00:17:20;;;;;;;4.50;2.47;;;;;;;18.69;88.25;99482.66;336321;28;16093;-73
2023/10/13 00:17:32;;;;;;;3.42;2.25;;;;;;;18.71;88.19;99487.78;335786;28;17304;-73
2023/10/13 00:17:44;;;;;;;3.72;2.53;;;;;;;18.69;88.23;99482.66;339081;28;5459;-73
2023/10/13 00:17:57;;;;;;;4.55;2.92;;;;;;;18.68;89.08;99480.13;335412;28;18394;-73
2023/10/13 00:18:12;;;;;;;4.85;2.83;;;;;;;18.67;88.68;99484.56;337213;28;5197;-73
2023/10/13 00:18:34;;;;;;;4.78;2.63;;;;;;;18.64;89.08;99490.00;336064;28;17814;-73
2023/10/13 00:18:48;;;;;;;4.53;2.67;;;;;;;18.62;89.07;99480.53;334151;28;18210;-73
2023/10/13 00:19:00;;;;;;;4.43;2.40;;;;;;;18.61;88.81;99484.94;334672;28;18188;-73
2023/10/13 00:19:13;;;;;;;3.60;2.13;;;;;;;18.62;88.79;99486.66;335359;28;5322;-74
2023/10/13 00:19:25;;;;;;;5.20;2.20;;;;;;;18.62;88.77;99472.66;338046;28;5635;-74
2023/10/13 00:19:44;;;;;;;6.95;2.60;;;;;;;18.63;88.72;99483.03;335631;28;17586;-74
2023/10/13 00:19:59;;;;;;;5.40;2.88;;;;;;;18.62;88.82;99481.38;335412;28;17849;-73
2023/10/13 00:20:16;;;;;;;3.65;2.70;;;;;;;18.61;88.83;99479.69;335545;28;19100;-73
2023/10/13 00:20:37;;;;;;;3.67;2.50;;;;;;;18.60;88.95;99483.28;335714;28;16094;-73
2023/10/13 00:20:49;;;;;;;3.45;2.25;;;;;;;18.59;88.92;99476.31;336430;28;17341;-73
2023/10/13 00:21:38;;;;;;;7.43;2.90;;;;;;;18.51;89.65;99482.13;336021;28;17983;-73
2023/10/13 00:21:47;;;;;;;4.65;2.70;;;;;;;18.56;89.02;99479.16;338426;28;4757;-73
2023/10/13 00:21:49;;;;;;;5.43;2.80;;;;;;;18.50;89.67;99480.44;330855;28;5035;-73
2023/10/13 00:22:08;;;;;;;5.57;2.75;;;;;;;18.49;89.47;99481.38;338987;28;4532;-73
2023/10/13 00:22:22;;;;;;;5.57;2.85;;;;;;;18.50;89.45;99476.97;335326;28;17826;-73
2023/10/13 00:22:36;;;;;;;5.00;2.72;;;;;;;18.51;89.31;99483.88;332797;28;18044;-73
2023/10/13 00:22:48;;;;;;;3.50;2.20;;;;;;;18.51;89.36;99483.88;335941;28;11849;-73
2023/10/13 00:23:00;;;;;;;3.90;2.30;;;;;;;18.51;89.58;99483.88;339911;28;5511;-73
2023/10/13 00:23:12;;;;;;;4.18;2.35;;;;;;;18.52;89.45;99482.97;339495;28;5545;-73
2023/10/13 00:23:27;;;;;;;4.90;2.60;;;;;;;18.51;89.45;99489.16;335066;28;18235;-73
2023/10/13 00:23:53;;;;;;;7.10;2.78;;;;;;;18.50;89.31;99476.97;336371;28;11844;-73
2023/10/13 00:24:06;;;;;;;5.30;2.70;;;;;;;18.49;89.42;99480.53;335865;28;17008;-73
2023/10/13 00:24:23;;;;;;;5.13;2.60;;;;;;;18.49;89.29;99477.88;337786;28;5412;-73
2023/10/13 00:24:51;;;;;;;4.93;2.73;;;;;;;18.46;89.69;99486.00;332590;28;17629;-73
2023/10/13 00:25:03;;;;;;;7.50;2.90;;;;;;;18.39;90.10;99485.59;336419;28;17152;-73
2023/10/13 00:25:19;;;;;;;6.63;2.75;;;;;;;18.36;90.33;99488.41;336487;28;18101;-73
2023/10/13 00:25:39;;;;;;;5.28;2.58;;;;;;;18.33;90.41;99481.59;337406;28;18150;-73
2023/10/13 00:25:56;;;;;;;5.35;2.65;;;;;;;18.32;90.40;99485.16;338213;28;17704;-73
2023/10/13 00:26:09;;;;;;;4.93;2.53;;;;;;;18.28;90.69;99483.66;338363;28;17786;-73
2023/10/13 00:26:29;;;;;;;5.30;2.88;;;;;;;18.26;90.64;99485.56;338667;28;17904;-73
2023/10/13 00:26:43;;;;;;;5.13;2.88;;;;;;;18.27;90.67;99479.38;338947;28;17628;-73
2023/10/13 00:26:55;;;;;;;4.38;2.60;;;;;;;18.28;90.54;99485.47;338081;28;11287;-73
2023/10/13 00:27:07;;;;;;;4.22;2.58;;;;;;;18.28;90.50;99482.84;341182;28;4670;-73
2023/10/13 00:27:30;;;;;;;3.55;2.20;;;;;;;18.28;90.41;99481.03;340527;28;10989;-73
2023/10/13 00:27:44;;;;;;;3.20;1.90;;;;;;;18.30;90.21;99483.56;338574;28;16694;-73
2023/10/13 00:27:56;;;;;;;4.00;2.10;;;;;;;18.32;90.21;99482.50;333762;28;16280;-73
2023/10/13 00:28:08;;;;;;;3.42;2.13;;;;;;;18.32;90.27;99485.16;339511;28;5248;-73
2023/10/13 00:28:24;;;;;;;3.17;2.50;;;;;;;18.33;90.24;99481.59;336455;28;4632;-73
2023/10/13 00:28:46;;;;;;;3.35;2.63;;;;;;;18.32;90.20;99479.88;335881;28;17912;-73
2023/10/13 00:29:15;;;;;;;3.15;2.30;;;;;;;18.35;90.16;99479.69;336758;28;17275;-73
2023/10/13 00:29:30;;;;;;;3.15;2.25;;;;;;;18.34;90.17;99488.50;336798;28;16033;-73
2023/10/13 00:29:43;;;;;;;3.38;2.47;;;;;;;18.33;90.16;99484.22;336530;28;12044;-73
2023/10/13 00:30:20;;;;;;;;;;;;;;;;;;;;;
2023/10/13 00:30:36;;;;;;;8.60;2.88;;;;;;;18.30;90.06;99481.78;340737;28;18029;-73
2023/10/13 00:30:59;;;;;;;5.75;2.42;;;;;;;18.29;90.17;99482.72;336034;28;17305;-74
2023/10/13 00:31:13;;;;;;;5.45;2.97;;;;;;;18.27;90.32;99476.72;339067;28;17909;-73
2023/10/13 00:31:32;;;;;;;6.18;3.30;;;;;;;18.25;90.35;99478.63;336042;28;17939;-73
2023/10/13 00:31:48;;;;;;;3.25;2.40;;;;;;;18.26;90.31;99475.03;335712;28;17354;-73
2023/10/13 00:32:02;;;;;;;2.80;2.08;;;;;;;18.27;90.18;99478.50;335170;28;16557;-73
2023/10/13 00:32:16;;;;;;;3.20;2.15;;;;;;;18.28;90.27;99478.41;335059;28;18829;-73
2023/10/13 00:32:31;;;;;;;3.97;2.10;;;;;;;18.28;89.96;99473.16;335789;28;4645;-73
2023/10/13 00:32:51;;;;;;;4.77;2.30;;;;;;;18.28;89.98;99477.56;331322;28;17523;-74
2023/10/13 00:33:04;;;;;;;4.18;2.45;;;;;;;18.28;90.16;99478.41;336716;28;18391;-73
2023/10/13 00:33:19;;;;;;;3.92;2.45;;;;;;;18.25;90.33;99476.00;339282;28;5574;-73
2023/10/13 00:33:32;;;;;;;3.30;2.17;;;;;;;18.23;90.29;99472.63;334895;28;19311;-73
2023/10/13 00:33:45;;;;;;;3.65;2.25;;;;;;;18.22;90.45;99473.56;331850;28;17150;-73
2023/10/13 00:34:01;;;;;;;4.30;2.42;;;;;;;18.20;90.55;99480.72;340672;28;5168;-73
2023/10/13 00:34:27;;;;;;;5.18;2.40;;;;;;;18.21;90.59;99471.03;337390;28;17721;-73
2023/10/13 00:34:40;;;;;;;5.00;2.58;;;;;;;18.18;90.68;99477.34;336020;28;17375;-73
2023/10/13 00:34:56;;;;;;;4.25;2.40;;;;;;;18.17;90.56;99473.88;339442;28;4726;-73
2023/10/13 00:35:35;;;;;;;5.10;2.30;;;;;;;18.18;90.55;99469.44;334138;28;17897;-73
2023/10/13 00:35:47;;;;;;;3.67;2.25;;;;;;;18.17;90.70;99471.25;336964;28;18613;-73
2023/10/13 00:36:00;;;;;;;3.63;2.35;;;;;;;18.17;90.72;99471.25;337522;28;18105;-73
2023/10/13 00:36:19;;;;;;;3.38;2.25;;;;;;;18.18;90.49;99472.06;336595;28;10432;-73
2023/10/13 00:36:34;;;;;;;2.80;2.03;;;;;;;18.16;90.40;99468.72;337279;28;17782;-73
2023/10/13 00:37:11;;;;;;;3.95;2.35;;;;;;;18.15;90.54;99472.31;337329;28;17645;-74
2023/10/13 00:37:28;;;;;;;4.22;2.35;;;;;;;18.12;90.86;99475.13;336615;28;16074;-73
2023/10/13 00:37:44;;;;;;;5.47;2.90;;;;;;;18.10;90.63;99469.94;337056;28;17445;-73
2023/10/13 00:38:04;;;;;;;5.05;2.58;;;;;;;18.09;90.82;99468.28;330645;28;18341;-73
2023/10/13 00:38:19;;;;;;;3.80;2.20;;;;;;;18.09;90.93;99467.41;336605;28;17238;-73
2023/10/13 00:38:31;;;;;;;4.53;2.33;;;;;;;18.09;90.80;99467.41;337187;28;17793;-73
2023/10/13 00:38:47;;;;;;;4.40;2.38;;;;;;;18.10;90.73;99469.13;339018;28;4929;-73
2023/10/13 00:38:59;;;;;;;6.43;2.35;;;;;;;18.10;90.62;99475.22;332313;28;17795;-73
2023/10/13 00:39:15;;;;;;;5.72;2.22;;;;;;;18.10;90.42;99469.13;339379;28;4535;-73
2023/10/13 00:39:28;;;;;;;3.35;2.03;;;;;;;18.11;90.47;99468.16;336273;28;18968;-73
2023/10/13 00:39:44;;;;;;;3.95;2.08;;;;;;;18.11;90.58;99465.53;335249;28;4716;-73
2023/10/13 00:39:56;;;;;;;3.75;2.10;;;;;;;18.12;90.65;99478.59;331388;28;19055;-73
2023/10/13 00:40:18;;;;;;;4.47;2.28;;;;;;;18.12;90.58;99467.22;339799;28;5211;-73
2023/10/13 00:40:54;;;;;;;4.15;2.50;;;;;;;18.08;90.85;99466.59;339670;28;5641;-73
2023/10/13 00:41:16;;;;;;;4.97;2.50;;;;;;;18.04;91.00;99469.53;336781;28;16929;-73
2023/10/13 00:42:06;;;;;;;4.97;2.50;;;;;;;18.05;91.22;99465.94;338276;28;18567;-72
2023/10/13 00:42:19;;;;;;;3.97;2.70;;;;;;;18.04;91.41;99469.53;337761;28;16384;-72
2023/10/13 00:42:50;;;;;;;3.80;2.57;;;;;;;18.04;91.33;99469.53;333603;28;19076;-73
2023/10/13 00:43:32;;;;;;;3.58;2.40;;;;;;;17.97;91.22;99471.72;337602;28;18093;-73
2023/10/13 00:44:03;;;;;;;4.15;2.50;;;;;;;17.98;91.29;99470.78;336835;28;18180;-73
2023/10/13 00:44:16;;;;;;;3.40;2.03;;;;;;;17.98;91.25;99464.69;339672;28;18351;-73
2023/10/13 00:44:37;;;;;;;2.80;2.13;;;;;;;17.98;91.28;99470.78;335747;28;17559;-73
2023/10/13 00:44:49;;;;;;;5.57;2.72;;;;;;;17.97;91.32;99471.72;337303;28;18386;-73
2023/10/13 00:45:01;;;;;;;6.32;2.72;;;;;;;17.97;91.38;99471.72;337957;28;18169;-73
2023/10/13 00:45:17;;;;;;;4.85;2.70;;;;;;;17.95;91.31;99476.25;341104;28;4666;-73
2023/10/13 00:45:33;;;;;;;4.53;2.78;;;;;;;17.95;91.27;99474.47;332332;28;18167;-73
2023/10/13 00:46:18;;;;;;;5.15;2.70;;;;;;;17.92;91.79;99468.56;337724;28;17481;-73
2023/10/13 00:46:33;;;;;;;4.47;2.58;;;;;;;17.92;91.75;99468.56;337641;28;17716;-73
2023/10/13 00:46:46;;;;;;;5.57;3.05;;;;;;;17.91;91.79;99470.34;332536;28;17855;-73
2023/10/13 00:46:58;;;;;;;5.70;2.95;;;;;;;17.90;91.82;99473.91;337960;28;19152;-73
2023/10/13 00:47:32;;;;;;;6.13;3.10;;;;;;;17.86;92.02;99472.41;339875;28;5504;-73
2023/10/13 00:47:56;;;;;;;4.63;2.50;;;;;;;17.89;91.84;99476.66;335688;28;16155;-73
2023/10/13 00:48:10;;;;;;;5.22;2.70;;;;;;;17.89;91.85;99471.41;336279;28;17039;-73
2023/10/13 00:48:42;;;;;;;4.60;2.75;;;;;;;17.87;91.77;99476.75;336207;28;18753;-73
2023/10/13 00:48:54;;;;;;;4.03;2.53;;;;;;;17.87;91.99;99471.50;336562;28;17572;-73
2023/10/13 00:49:09;;;;;;;4.68;2.83;;;;;;;17.89;91.92;99476.66;338942;28;5943;-73
2023/10/13 00:49:21;;;;;;;5.57;3.08;;;;;;;17.88;91.81;99467.91;338398;28;17310;-73
2023/10/13 00:49:39;;;;;;;4.90;2.72;;;;;;;17.90;91.87;99476.53;338046;28;18094;-73
2023/10/13 00:49:51;;;;;;;3.97;1.92;;;;;;;17.91;91.81;99475.59;337763;28;17315;-73
2023/10/13 00:50:04;;;;;;;4.10;1.85;;;;;;;17.92;91.75;99469.38;337708;28;20022;-73
2023/10/13 00:50:17;;;;;;;5.65;2.05;;;;;;;17.92;91.71;99472.00;340760;28;4657;-73
2023/10/13 00:50:30;;;;;;;4.60;2.10;;;;;;;17.92;91.64;99477.28;337526;28;18066;-73
2023/10/13 00:50:45;;;;;;;3.50;2.15;;;;;;;17.92;91.62;99476.44;339537;28;5168;-73
2023/10/13 00:51:02;;;;;;;3.45;2.15;;;;;;;17.94;91.79;99474.56;337554;28;17632;-73
2023/10/13 00:51:18;;;;;;;5.32;2.47;;;;;;;17.93;91.65;99478.13;335289;28;18358;-73
2023/10/13 00:52:05;;;;;;;6.15;2.72;;;;;;;17.91;91.68;99475.59;337550;28;17257;-73
2023/10/13 00:52:10;;;;;;;5.65;2.75;;;;;;;17.86;91.90;99476.84;335059;28;17032;-73
2023/10/13 00:52:23;;;;;;;5.45;2.60;;;;;;;17.84;91.85;99474.31;341578;28;5512;-73
2023/10/13 00:52:36;;;;;;;5.18;2.95;;;;;;;17.78;92.11;99472.03;337376;28;17977;-73
2023/10/13 00:52:50;;;;;;;5.85;3.10;;;;;;;17.77;92.37;99473.00;340630;28;5489;-73
2023/10/13 00:53:03;;;;;;;4.78;2.75;;;;;;;17.77;92.11;99473.84;338031;28;17326;-73
2023/10/13 00:53:15;;;;;;;6.10;2.70;;;;;;;17.79;92.14;99476.38;333656;28;5490;-73
2023/10/13 00:53:29;;;;;;;5.57;2.50;;;;;;;17.78;91.88;99472.88;340804;28;4697;-73
2023/10/13 00:53:41;;;;;;;5.60;2.60;;;;;;;17.79;91.84;99476.38;338104;28;16603;-73
2023/10/13 00:53:53;;;;;;;5.88;2.53;;;;;;;17.79;91.87;99479.00;340168;28;4548;-73
2023/10/13 00:54:12;;;;;;;4.40;2.25;;;;;;;17.80;91.95;99472.78;338033;28;18086;-73
2023/10/13 00:54:26;;;;;;;4.55;2.40;;;;;;;17.80;91.88;99472.78;337218;28;17681;-73
2023/10/13 00:54:39;;;;;;;5.95;2.50;;;;;;;17.79;91.79;99471.13;336900;28;17839;-73
2023/10/13 00:54:53;;;;;;;5.03;2.30;;;;;;;17.80;91.91;99472.78;337054;28;18257;-73
2023/10/13 00:55:08;;;;;;;3.50;2.28;;;;;;;17.78;91.83;99475.50;336722;28;18940;-73
2023/10/13 00:55:24;;;;;;;5.78;2.47;;;;;;;17.78;91.79;99479.94;337732;28;16262;-73
2023/10/13 00:55:41;;;;;;;5.60;2.50;;;;;;;17.76;91.99;99482.66;336028;28;18523;-73
2023/10/13 00:55:55;;;;;;;5.93;2.72;;;;;;;17.74;92.31;99473.19;331119;28;18061;-73
2023/10/13 00:56:09;;;;;;;5.50;2.60;;;;;;;17.75;92.30;99469.63;335408;28;18015;-73
2023/10/13 00:56:23;;;;;;;2.83;2.13;;;;;;;17.75;92.28;99469.63;335851;28;5224;-73
2023/10/13 00:56:41;;;;;;;5.30;2.33;;;;;;;17.73;92.38;99472.34;339425;28;4962;-73
2023/10/13 00:57:04;;;;;;;6.10;2.72;;;;;;;17.73;92.25;99476.78;335294;28;17591;-73
2023/10/13 00:57:30;;;;;;;5.32;3.17;;;;;;;17.73;92.36;99472.34;332539;28;17746;-73
2023/10/13 00:57:42;;;;;;;3.70;2.33;;;;;;;17.73;92.01;99472.34;334363;28;17462;-73
2023/10/13 00:57:57;;;;;;;8.18;2.33;;;;;;;17.73;92.02;99471.53;337065;28;4510;-75
2023/10/13 00:58:12;;;;;;;9.60;2.70;;;;;;;17.73;92.00;99471.53;335237;28;17903;-75
2023/10/13 00:58:27;;;;;;;5.32;2.83;;;;;;;17.73;92.09;99471.53;333370;28;17609;-74
2023/10/13 00:58:39;;;;;;;4.68;2.70;;;;;;;17.73;92.06;99471.53;334896;28;19062;-74
2023/10/13 00:58:52;;;;;;;5.20;2.63;;;;;;;17.74;91.93;99470.56;332884;28;5305;-74
2023/10/13 00:59:05;;;;;;;4.63;2.30;;;;;;;17.75;91.68;99469.63;335131;28;18157;-74
2023/10/13 00:59:17;;;;;;;3.97;2.08;;;;;;;17.74;91.82;99468.78;335672;28;11332;-73
2023/10/13 00:59:36;;;;;;;3.13;2.20;;;;;;;17.75;91.79;99469.63;338568;28;5422;-73
2023/10/13 00:59:48;;;;;;;3.50;2.22;;;;;;;17.75;91.72;99474.91;335630;28;17635;-73
2023/10/13 01:00:18;;;;;;;3.47;2.17;;;;;;;17.75;91.92;99474.91;339109;28;5139;-73
2023/10/13 01:00:32;;;;;;;7.75;2.90;;;;;;;17.75;92.21;99469.63;336756;28;17168;-73
2023/10/13 01:00:47;;;;;;;6.30;3.08;;;;;;;17.72;92.18;99470.66;334933;28;19083;-73
2023/10/13 01:01:17;;;;;;;5.57;2.75;;;;;;;17.70;92.20;99472.53;336388;28;17984;-73
2023/10/13 01:01:32;;;;;;;4.65;2.40;;;;;;;17.69;92.17;99464.78;336280;28;18444;-73
2023/10/13 01:01:45;;;;;;;4.03;2.55;;;;;;;17.65;92.41;99463.28;332459;28;17780;-73
2023/10/13 01:01:57;;;;;;;3.75;2.50;;;;;;;17.64;92.48;99465.06;341473;28;5318;-73
2023/10/13 01:02:41;;;;;;;4.82;2.40;;;;;;;17.64;92.24;99469.47;332602;28;17439;-72
2023/10/13 01:02:56;;;;;;;3.30;2.38;;;;;;;17.64;92.42;99461.59;338294;28;17914;-73
2023/10/13 01:02:56;;;;;;;4.72;2.33;;;;;;;17.65;92.19;99465.91;332620;28;19489;-73
2023/10/13 01:03:09;;;;;;;4.78;2.70;;;;;;;17.64;92.39;99461.59;335674;28;12558;-74
2023/10/13 01:03:25;;;;;;;5.15;2.92;;;;;;;17.58;92.92;99466.28;334258;28;4682;-74
2023/10/13 01:03:38;;;;;;;4.57;2.88;;;;;;;17.56;93.24;99468.19;336393;28;17867;-73
2023/10/13 01:04:11;;;;;;;4.68;2.75;;;;;;;17.55;93.22;99469.13;333679;28;18150;-74
2023/10/13 01:04:28;;;;;;;5.25;2.47;;;;;;;17.50;93.36;99465.09;336830;28;17424;-74
2023/10/13 01:04:40;;;;;;;5.93;2.30;;;;;;;17.49;93.20;99464.28;332028;28;17775;-74
2023/10/13 01:04:54;;;;;;;7.47;2.50;;;;;;;17.49;93.34;99466.91;338869;28;4848;-74
2023/10/13 01:05:11;;;;;;;6.55;2.60;;;;;;;17.50;93.34;99468.56;336557;28;17957;-74
2023/10/13 01:05:25;;;;;;;4.32;2.58;;;;;;;17.50;93.57;99460.69;338747;28;17807;-74
2023/10/13 01:05:39;;;;;;;7.20;3.10;;;;;;;17.49;93.60;99463.44;338310;28;16988;-74
2023/10/13 01:05:54;;;;;;;7.65;3.13;;;;;;;17.46;93.55;99464.44;337209;28;17595;-74
2023/10/13 01:06:06;;;;;;;5.13;2.70;;;;;;;17.45;93.83;99469.84;337067;28;18625;-73
2023/10/13 01:06:20;;;;;;;4.60;2.70;;;;;;;17.45;93.78;99470.66;335666;28;4685;-74
2023/10/13 01:06:32;;;;;;;4.32;2.70;;;;;;;17.46;93.45;99464.44;337729;28;17955;-75
2023/10/13 01:06:45;;;;;;;4.30;2.60;;;;;;;17.46;93.69;99467.09;340945;28;4671;-74
2023/10/13 01:06:58;;;;;;;4.20;2.47;;;;;;;17.48;93.45;99467.00;338177;28;17951;-73
2023/10/13 01:07:12;;;;;;;4.28;2.42;;;;;;;17.48;93.46;99467.81;338495;28;10915;-73
2023/10/13 01:07:24;;;;;;;3.67;2.42;;;;;;;17.50;93.38;99471.19;341141;28;4648;-73
2023/10/13 01:07:37;;;;;;;5.28;2.58;;;;;;;17.50;93.47;99465.94;338036;28;18087;-73
2023/10/13 01:07:56;;;;;;;5.85;2.58;;;;;;;17.51;93.60;99467.66;335026;28;5527;-73
2023/10/13 01:08:11;;;;;;;4.38;2.58;;;;;;;17.54;93.45;99466.59;337138;28;17659;-73
2023/10/13 01:08:37;;;;;;;3.75;2.55;;;;;;;17.54;93.24;99467.44;337086;28;17492;-73
2023/10/13 01:08:57;;;;;;;5.35;2.55;;;;;;;17.52;93.45;99464.06;337058;28;17847;-74
2023/10/13 01:09:14;;;;;;;7.75;2.50;;;;;;;17.53;93.50;99465.75;336566;28;17627;-74
2023/10/13 01:09:26;;;;;;;7.97;2.75;;;;;;;17.51;93.19;99472.91;336537;28;17474;-73
2023/10/13 01:09:47;;;;;;;5.68;2.85;;;;;;;17.51;93.30;99470.28;339176;28;4902;-73
2023/10/13 01:09:59;;;;;;;5.13;2.70;;;;;;;17.51;93.21;99467.66;338306;28;15980;-73
2023/10/13 01:10:15;;;;;;;5.60;2.67;;;;;;;17.51;93.32;99464.19;338271;28;12985;-73
2023/10/13 01:10:27;;;;;;;5.07;2.50;;;;;;;17.51;93.20;99467.66;339859;28;17492;-73
2023/10/13 01:10:41;;;;;;;3.83;2.42;;;;;;;17.52;92.97;99464.06;338863;28;18706;-73
2023/10/13 01:10:53;;;;;;;3.92;2.55;;;;;;;17.52;93.12;99466.69;336901;28;14984;-73
2023/10/13 01:11:10;;;;;;;3.95;2.65;;;;;;;17.53;93.11;99465.75;339392;28;4671;-73
2023/10/13 01:11:26;;;;;;;5.68;2.83;;;;;;;17.52;93.24;99466.69;335849;28;18757;-73
2023/10/13 01:11:44;;;;;;;7.53;2.47;;;;;;;17.52;93.53;99466.69;335655;28;18298;-73
2023/10/13 01:12:00;;;;;;;5.80;2.38;;;;;;;17.51;93.56;99467.66;337319;28;17567;-73
2023/10/13 01:12:12;;;;;;;4.18;2.50;;;;;;;17.50;93.21;99462.47;336017;28;17379;-73
2023/10/13 01:12:24;;;;;;;4.18;2.40;;;;;;;17.49;93.42;99466.91;331243;28;18036;-73
2023/10/13 01:12:36;;;;;;;5.25;2.88;;;;;;;17.48;93.54;99464.38;338601;28;4657;-73
2023/10/13 01:12:52;;;;;;;5.28;2.90;;;;;;;17.47;93.35;99468.78;334775;28;4685;-73
2023/10/13 01:13:04;;;;;;;5.82;2.72;;;;;;;17.49;93.24;99459.00;336238;28;18625;-73
2023/10/13 01:13:17;;;;;;;4.03;2.03;;;;;;;17.49;93.28;99452.94;338775;28;4538;-73
2023/10/13 01:13:31;;;;;;;3.42;1.85;;;;;;;17.51;93.30;99456.31;336907;28;18039;-73
2023/10/13 01:13:43;;;;;;;3.15;2.13;;;;;;;17.49;93.58;99453.75;339066;28;11736;-73
2023/10/13 01:13:57;;;;;;;3.90;2.38;;;;;;;17.50;93.60;99459.84;331209;28;18571;-73
2023/10/13 01:14:11;;;;;;;4.43;2.38;;;;;;;17.48;93.44;99465.19;338528;28;12467;-73
2023/10/13 01:14:27;;;;;;;4.15;2.40;;;;;;;17.46;93.33;99448.69;340013;28;5690;-74
2023/10/13 01:14:39;;;;;;;4.03;2.40;;;;;;;17.49;93.27;99453.75;337610;28;17715;-74
2023/10/13 01:14:51;;;;;;;4.40;2.43;;;;;;;17.48;93.49;99452.06;339799;28;5302;-74
2023/10/13 01:15:07;;;;;;;4.95;2.72;;;;;;;17.47;93.52;99455.66;338551;28;4663;-74
2023/10/13 01:15:22;;;;;;;4.55;2.72;;;;;;;17.47;93.31;99450.38;338969;28;19014;-74
2023/10/13 01:15:34;;;;;;;5.18;2.78;;;;;;;17.48;93.12;99452.06;331231;28;18595;-74
2023/10/13 01:15:46;;;;;;;5.13;2.75;;;;;;;17.48;93.17;99457.31;335850;28;17822;-74
2023/10/13 01:16:02;;;;;;;3.95;2.42;;;;;;;17.48;93.10;99446.81;339092;28;4992;-73
2023/10/13 01:16:14;;;;;;;5.53;2.67;;;;;;;17.48;92.92;99457.31;336515;28;17865;-74
2023/10/13 01:16:26;;;;;;;5.65;2.60;;;;;;;17.49;92.88;99452.94;337117;28;18858;-73
2023/10/13 01:16:52;;;;;;;4.43;2.60;;;;;;;17.49;92.80;99453.75;338472;28;4681;-74
2023/10/13 01:17:04;;;;;;;4.22;2.33;;;;;;;17.45;92.83;99452.28;337489;28;17277;-74
2023/10/13 01:17:17;;;;;;;4.45;2.40;;;;;;;17.45;92.79;99454.91;337400;28;5893;-74
2023/10/13 01:17:31;;;;;;;4.60;2.47;;;;;;;17.44;92.87;99461.09;341318;28;4675;-74
2023/10/13 01:17:46;;;;;;;5.07;2.65;;;;;;;17.43;92.82;99459.41;337026;28;18022;-74
2023/10/13 01:18:12;;;;;;;4.45;2.60;;;;;;;17.39;93.29;99450.03;337525;28;17979;-74